sensor_id;sensor_type;location;lat;lon;timestamp;P1;durP1;ratioP1;P2;durP2;ratioP2
20478;SDS011;10398;52.490;13.434;2022-10-17T00:00:48;13.07;;;5.90;;
20478;SDS011;10398;52.490;13.434;2022-10-17T00:03:14;11.03;;;5.87;;
20478;SDS011;10398;52.490;13.434;2022-10-17T00:05:40;13.47;;;6.33;;
20478;SDS011;10398;52.490;13.434;2022-10-17T00:08:07;12.87;;;7.07;;
20478;SDS011;10398;52.490;13.434;2022-10-17T00:10:34;11.67;;;5.63;;
20478;SDS011;10398;52.490;13.434;2022-10-17T00:12:59;10.43;;;6.37;;
20478;SDS011;10398;52.490;13.434;2022-10-17T00:15:25;11.97;;;5.63;;
20478;SDS011;10398;52.490;13.434;2022-10-17T00:17:51;10.83;;;5.20;;
20478;SDS011;10398;52.490;13.434;2022-10-17T00:20:16;12.40;;;6.13;;
20478;SDS011;10398;52.490;13.434;2022-10-17T00:22:42;13.07;;;6.03;;
20478;SDS011;10398;52.490;13.434;2022-10-17T00:25:08;9.50;;;5.23;;
20478;SDS011;10398;52.490;13.434;2022-10-17T00:27:34;10.53;;;5.47;;
20478;SDS011;10398;52.490;13.434;2022-10-17T00:30:01;9.63;;;5.23;;
20478;SDS011;10398;52.490;13.434;2022-10-17T00:32:27;12.17;;;5.37;;
20478;SDS011;10398;52.490;13.434;2022-10-17T00:34:53;8.67;;;5.10;;
20478;SDS011;10398;52.490;13.434;2022-10-17T00:37:18;9.97;;;5.00;;
20478;SDS011;10398;52.490;13.434;2022-10-17T00:39:44;11.70;;;4.97;;
20478;SDS011;10398;52.490;13.434;2022-10-17T00:42:11;11.07;;;5.07;;
20478;SDS011;10398;52.490;13.434;2022-10-17T00:47:07;8.20;;;5.17;;
20478;SDS011;10398;52.490;13.434;2022-10-17T00:49:38;15.17;;;5.60;;
20478;SDS011;10398;52.490;13.434;2022-10-17T00:52:09;10.47;;;4.97;;
20478;SDS011;10398;52.490;13.434;2022-10-17T00:54:38;10.03;;;4.47;;
20478;SDS011;10398;52.490;13.434;2022-10-17T00:57:07;9.33;;;5.23;;
20478;SDS011;10398;52.490;13.434;2022-10-17T00:59:33;10.20;;;5.07;;
20478;SDS011;10398;52.490;13.434;2022-10-17T01:02:01;7.93;;;4.70;;
20478;SDS011;10398;52.490;13.434;2022-10-17T01:04:29;11.03;;;5.37;;
20478;SDS011;10398;52.490;13.434;2022-10-17T01:06:54;8.50;;;4.60;;
20478;SDS011;10398;52.490;13.434;2022-10-17T01:09:20;8.40;;;4.97;;
20478;SDS011;10398;52.490;13.434;2022-10-17T01:14:40;7.67;;;4.87;;
20478;SDS011;10398;52.490;13.434;2022-10-17T01:31:35;8.00;;;4.30;;
20478;SDS011;10398;52.490;13.434;2022-10-17T01:42:02;9.37;;;3.97;;
20478;SDS011;10398;52.490;13.434;2022-10-17T01:44:48;6.97;;;3.77;;
20478;SDS011;10398;52.490;13.434;2022-10-17T01:47:20;7.47;;;4.17;;
20478;SDS011;10398;52.490;13.434;2022-10-17T01:49:52;7.73;;;4.00;;
20478;SDS011;10398;52.490;13.434;2022-10-17T01:52:22;5.30;;;3.57;;
20478;SDS011;10398;52.490;13.434;2022-10-17T01:54:59;8.00;;;3.83;;
20478;SDS011;10398;52.490;13.434;2022-10-17T01:57:34;7.00;;;3.60;;
20478;SDS011;10398;52.490;13.434;2022-10-17T02:00:07;6.77;;;4.00;;
20478;SDS011;10398;52.490;13.434;2022-10-17T02:02:37;8.10;;;4.00;;
20478;SDS011;10398;52.490;13.434;2022-10-17T02:05:05;6.83;;;3.93;;
20478;SDS011;10398;52.490;13.434;2022-10-17T02:07:32;8.03;;;3.60;;
20478;SDS011;10398;52.490;13.434;2022-10-17T02:09:58;6.97;;;3.57;;
20478;SDS011;10398;52.490;13.434;2022-10-17T02:12:32;7.87;;;3.40;;
20478;SDS011;10398;52.490;13.434;2022-10-17T02:17:44;8.23;;;3.60;;
20478;SDS011;10398;52.490;13.434;2022-10-17T02:20:32;4.93;;;2.93;;
20478;SDS011;10398;52.490;13.434;2022-10-17T02:23:18;7.50;;;3.77;;
20478;SDS011;10398;52.490;13.434;2022-10-17T02:25:54;5.77;;;3.63;;
20478;SDS011;10398;52.490;13.434;2022-10-17T02:28:46;4.67;;;3.10;;
20478;SDS011;10398;52.490;13.434;2022-10-17T02:31:24;9.03;;;3.67;;
20478;SDS011;10398;52.490;13.434;2022-10-17T02:36:27;4.10;;;3.03;;
20478;SDS011;10398;52.490;13.434;2022-10-17T02:38:55;5.27;;;3.30;;
20478;SDS011;10398;52.490;13.434;2022-10-17T02:41:22;5.20;;;2.80;;
20478;SDS011;10398;52.490;13.434;2022-10-17T02:43:49;5.10;;;3.13;;
20478;SDS011;10398;52.490;13.434;2022-10-17T02:46:17;4.53;;;2.93;;
20478;SDS011;10398;52.490;13.434;2022-10-17T02:48:52;7.70;;;3.20;;
20478;SDS011;10398;52.490;13.434;2022-10-17T02:56:30;5.30;;;3.47;;
20478;SDS011;10398;52.490;13.434;2022-10-17T02:59:01;8.73;;;3.63;;
20478;SDS011;10398;52.490;13.434;2022-10-17T03:01:30;6.23;;;3.50;;
20478;SDS011;10398;52.490;13.434;2022-10-17T03:04:03;5.23;;;3.60;;
20478;SDS011;10398;52.490;13.434;2022-10-17T03:06:33;5.30;;;3.40;;
20478;SDS011;10398;52.490;13.434;2022-10-17T03:08:58;5.20;;;3.23;;
20478;SDS011;10398;52.490;13.434;2022-10-17T03:11:24;5.43;;;3.30;;
20478;SDS011;10398;52.490;13.434;2022-10-17T03:13:49;5.63;;;3.57;;
20478;SDS011;10398;52.490;13.434;2022-10-17T03:16:15;9.57;;;3.17;;
20478;SDS011;10398;52.490;13.434;2022-10-17T03:18:40;5.23;;;3.43;;
20478;SDS011;10398;52.490;13.434;2022-10-17T03:21:06;5.27;;;3.23;;
20478;SDS011;10398;52.490;13.434;2022-10-17T03:23:31;5.73;;;3.60;;
20478;SDS011;10398;52.490;13.434;2022-10-17T03:25:57;6.57;;;3.40;;
20478;SDS011;10398;52.490;13.434;2022-10-17T03:28:26;7.40;;;3.60;;
20478;SDS011;10398;52.490;13.434;2022-10-17T03:30:52;5.43;;;3.80;;
20478;SDS011;10398;52.490;13.434;2022-10-17T03:33:17;5.27;;;3.70;;
20478;SDS011;10398;52.490;13.434;2022-10-17T03:35:43;5.77;;;3.50;;
20478;SDS011;10398;52.490;13.434;2022-10-17T03:38:08;5.23;;;3.80;;
20478;SDS011;10398;52.490;13.434;2022-10-17T03:40:34;10.57;;;4.83;;
20478;SDS011;10398;52.490;13.434;2022-10-17T03:43:00;7.03;;;3.83;;
20478;SDS011;10398;52.490;13.434;2022-10-17T03:45:25;5.60;;;3.83;;
20478;SDS011;10398;52.490;13.434;2022-10-17T03:47:51;6.63;;;3.80;;
20478;SDS011;10398;52.490;13.434;2022-10-17T03:50:16;7.20;;;3.90;;
20478;SDS011;10398;52.490;13.434;2022-10-17T03:52:45;5.80;;;3.77;;
20478;SDS011;10398;52.490;13.434;2022-10-17T03:55:12;5.93;;;3.97;;
20478;SDS011;10398;52.490;13.434;2022-10-17T03:57:38;5.47;;;3.93;;
20478;SDS011;10398;52.490;13.434;2022-10-17T04:00:04;5.47;;;3.70;;
20478;SDS011;10398;52.490;13.434;2022-10-17T04:02:30;6.27;;;3.80;;
20478;SDS011;10398;52.490;13.434;2022-10-17T04:04:55;13.13;;;5.97;;
20478;SDS011;10398;52.490;13.434;2022-10-17T04:07:21;7.17;;;4.17;;
20478;SDS011;10398;52.490;13.434;2022-10-17T04:09:47;7.80;;;4.60;;
20478;SDS011;10398;52.490;13.434;2022-10-17T04:12:12;6.80;;;4.37;;
20478;SDS011;10398;52.490;13.434;2022-10-17T04:14:38;5.20;;;3.80;;
20478;SDS011;10398;52.490;13.434;2022-10-17T04:17:03;6.00;;;3.67;;
20478;SDS011;10398;52.490;13.434;2022-10-17T04:19:29;6.50;;;4.27;;
20478;SDS011;10398;52.490;13.434;2022-10-17T04:21:54;7.50;;;4.73;;
20478;SDS011;10398;52.490;13.434;2022-10-17T04:24:20;8.83;;;4.20;;
20478;SDS011;10398;52.490;13.434;2022-10-17T04:26:48;6.13;;;3.70;;
20478;SDS011;10398;52.490;13.434;2022-10-17T04:29:14;6.53;;;4.00;;
20478;SDS011;10398;52.490;13.434;2022-10-17T04:31:39;6.60;;;3.53;;
20478;SDS011;10398;52.490;13.434;2022-10-17T04:34:05;8.40;;;3.70;;
20478;SDS011;10398;52.490;13.434;2022-10-17T04:36:31;9.47;;;3.87;;
20478;SDS011;10398;52.490;13.434;2022-10-17T04:38:56;6.00;;;3.90;;
20478;SDS011;10398;52.490;13.434;2022-10-17T04:41:23;5.50;;;3.87;;
20478;SDS011;10398;52.490;13.434;2022-10-17T04:43:49;7.47;;;4.20;;
20478;SDS011;10398;52.490;13.434;2022-10-17T04:46:15;6.73;;;3.97;;
20478;SDS011;10398;52.490;13.434;2022-10-17T04:48:41;5.03;;;3.80;;
20478;SDS011;10398;52.490;13.434;2022-10-17T04:51:10;4.93;;;3.57;;
20478;SDS011;10398;52.490;13.434;2022-10-17T04:53:38;6.33;;;4.00;;
20478;SDS011;10398;52.490;13.434;2022-10-17T04:56:09;7.43;;;4.10;;
20478;SDS011;10398;52.490;13.434;2022-10-17T04:58:35;5.47;;;3.43;;
20478;SDS011;10398;52.490;13.434;2022-10-17T05:01:04;6.63;;;4.00;;
20478;SDS011;10398;52.490;13.434;2022-10-17T05:03:32;6.60;;;3.50;;
20478;SDS011;10398;52.490;13.434;2022-10-17T05:06:01;5.63;;;3.80;;
20478;SDS011;10398;52.490;13.434;2022-10-17T05:08:28;7.17;;;3.60;;
20478;SDS011;10398;52.490;13.434;2022-10-17T05:10:53;4.83;;;3.40;;
20478;SDS011;10398;52.490;13.434;2022-10-17T05:13:19;7.13;;;4.20;;
20478;SDS011;10398;52.490;13.434;2022-10-17T05:15:45;5.67;;;3.60;;
20478;SDS011;10398;52.490;13.434;2022-10-17T05:18:10;8.70;;;3.47;;
20478;SDS011;10398;52.490;13.434;2022-10-17T05:20:36;6.83;;;4.13;;
20478;SDS011;10398;52.490;13.434;2022-10-17T05:23:02;5.80;;;3.63;;
20478;SDS011;10398;52.490;13.434;2022-10-17T05:25:27;5.90;;;3.57;;
20478;SDS011;10398;52.490;13.434;2022-10-17T05:27:53;5.77;;;3.77;;
20478;SDS011;10398;52.490;13.434;2022-10-17T05:30:19;5.53;;;3.00;;
20478;SDS011;10398;52.490;13.434;2022-10-17T05:32:45;8.10;;;3.83;;
20478;SDS011;10398;52.490;13.434;2022-10-17T05:35:10;6.50;;;3.70;;
20478;SDS011;10398;52.490;13.434;2022-10-17T05:37:36;6.97;;;3.87;;
20478;SDS011;10398;52.490;13.434;2022-10-17T05:40:02;7.30;;;3.50;;
20478;SDS011;10398;52.490;13.434;2022-10-17T05:42:28;5.13;;;2.80;;
20478;SDS011;10398;52.490;13.434;2022-10-17T05:44:53;6.77;;;4.00;;
20478;SDS011;10398;52.490;13.434;2022-10-17T05:47:19;6.90;;;3.50;;
20478;SDS011;10398;52.490;13.434;2022-10-17T05:49:45;4.90;;;3.47;;
20478;SDS011;10398;52.490;13.434;2022-10-17T05:52:10;5.37;;;3.13;;
20478;SDS011;10398;52.490;13.434;2022-10-17T05:54:36;5.17;;;3.70;;
20478;SDS011;10398;52.490;13.434;2022-10-17T05:57:02;7.73;;;3.97;;
20478;SDS011;10398;52.490;13.434;2022-10-17T05:59:28;6.37;;;3.30;;
20478;SDS011;10398;52.490;13.434;2022-10-17T06:01:53;8.83;;;3.87;;
20478;SDS011;10398;52.490;13.434;2022-10-17T06:04:19;6.17;;;3.87;;
20478;SDS011;10398;52.490;13.434;2022-10-17T06:06:45;6.30;;;3.80;;
20478;SDS011;10398;52.490;13.434;2022-10-17T06:09:11;6.80;;;4.17;;
20478;SDS011;10398;52.490;13.434;2022-10-17T06:11:37;5.27;;;3.80;;
20478;SDS011;10398;52.490;13.434;2022-10-17T06:14:03;7.07;;;3.97;;
20478;SDS011;10398;52.490;13.434;2022-10-17T06:16:28;5.03;;;3.63;;
20478;SDS011;10398;52.490;13.434;2022-10-17T06:18:54;7.07;;;3.77;;
20478;SDS011;10398;52.490;13.434;2022-10-17T06:21:21;8.97;;;3.70;;
20478;SDS011;10398;52.490;13.434;2022-10-17T06:23:48;6.20;;;3.57;;
20478;SDS011;10398;52.490;13.434;2022-10-17T06:26:14;6.53;;;3.83;;
20478;SDS011;10398;52.490;13.434;2022-10-17T06:28:39;7.47;;;3.90;;
20478;SDS011;10398;52.490;13.434;2022-10-17T06:31:12;7.03;;;3.50;;
20478;SDS011;10398;52.490;13.434;2022-10-17T06:33:39;6.77;;;4.23;;
20478;SDS011;10398;52.490;13.434;2022-10-17T06:36:06;12.20;;;4.60;;
20478;SDS011;10398;52.490;13.434;2022-10-17T06:38:32;7.53;;;4.00;;
20478;SDS011;10398;52.490;13.434;2022-10-17T06:41:02;7.77;;;4.77;;
20478;SDS011;10398;52.490;13.434;2022-10-17T06:43:36;7.83;;;4.13;;
20478;SDS011;10398;52.490;13.434;2022-10-17T06:46:03;8.20;;;4.30;;
20478;SDS011;10398;52.490;13.434;2022-10-17T06:48:29;8.10;;;3.80;;
20478;SDS011;10398;52.490;13.434;2022-10-17T06:50:58;6.17;;;4.43;;
20478;SDS011;10398;52.490;13.434;2022-10-17T06:53:28;8.53;;;3.70;;
20478;SDS011;10398;52.490;13.434;2022-10-17T06:55:55;6.27;;;3.93;;
20478;SDS011;10398;52.490;13.434;2022-10-17T06:58:25;8.27;;;4.40;;
20478;SDS011;10398;52.490;13.434;2022-10-17T07:00:52;7.70;;;4.13;;
20478;SDS011;10398;52.490;13.434;2022-10-17T07:03:26;8.50;;;4.43;;
20478;SDS011;10398;52.490;13.434;2022-10-17T07:05:52;12.97;;;4.20;;
20478;SDS011;10398;52.490;13.434;2022-10-17T07:08:19;10.50;;;4.20;;
20478;SDS011;10398;52.490;13.434;2022-10-17T07:10:45;7.50;;;3.93;;
20478;SDS011;10398;52.490;13.434;2022-10-17T07:13:11;6.60;;;4.20;;
20478;SDS011;10398;52.490;13.434;2022-10-17T07:15:37;5.93;;;4.00;;
20478;SDS011;10398;52.490;13.434;2022-10-17T07:18:03;11.00;;;4.30;;
20478;SDS011;10398;52.490;13.434;2022-10-17T07:20:29;7.33;;;4.20;;
20478;SDS011;10398;52.490;13.434;2022-10-17T07:22:55;8.67;;;3.90;;
20478;SDS011;10398;52.490;13.434;2022-10-17T07:25:20;7.87;;;4.10;;
20478;SDS011;10398;52.490;13.434;2022-10-17T07:27:47;6.50;;;4.30;;
20478;SDS011;10398;52.490;13.434;2022-10-17T07:30:13;8.67;;;3.50;;
20478;SDS011;10398;52.490;13.434;2022-10-17T07:32:40;5.20;;;3.40;;
20478;SDS011;10398;52.490;13.434;2022-10-17T07:35:06;7.80;;;3.87;;
20478;SDS011;10398;52.490;13.434;2022-10-17T07:37:32;8.47;;;3.60;;
20478;SDS011;10398;52.490;13.434;2022-10-17T07:39:58;5.80;;;3.80;;
20478;SDS011;10398;52.490;13.434;2022-10-17T07:42:24;5.53;;;3.40;;
20478;SDS011;10398;52.490;13.434;2022-10-17T07:44:49;6.77;;;3.83;;
20478;SDS011;10398;52.490;13.434;2022-10-17T07:47:15;7.37;;;3.90;;
20478;SDS011;10398;52.490;13.434;2022-10-17T07:49:41;7.13;;;3.77;;
20478;SDS011;10398;52.490;13.434;2022-10-17T07:52:11;10.83;;;3.87;;
20478;SDS011;10398;52.490;13.434;2022-10-17T07:54:38;7.47;;;4.50;;
20478;SDS011;10398;52.490;13.434;2022-10-17T07:57:04;6.93;;;3.60;;
20478;SDS011;10398;52.490;13.434;2022-10-17T07:59:31;5.60;;;3.53;;
20478;SDS011;10398;52.490;13.434;2022-10-17T08:01:58;10.83;;;3.63;;
20478;SDS011;10398;52.490;13.434;2022-10-17T08:04:24;5.80;;;3.20;;
20478;SDS011;10398;52.490;13.434;2022-10-17T08:06:49;5.67;;;3.10;;
20478;SDS011;10398;52.490;13.434;2022-10-17T08:09:15;5.63;;;3.20;;
20478;SDS011;10398;52.490;13.434;2022-10-17T08:11:41;6.47;;;3.20;;
20478;SDS011;10398;52.490;13.434;2022-10-17T08:14:10;5.70;;;2.90;;
20478;SDS011;10398;52.490;13.434;2022-10-17T08:16:36;4.63;;;2.90;;
20478;SDS011;10398;52.490;13.434;2022-10-17T08:19:02;7.90;;;2.80;;
20478;SDS011;10398;52.490;13.434;2022-10-17T08:21:29;6.60;;;3.03;;
20478;SDS011;10398;52.490;13.434;2022-10-17T08:23:54;4.27;;;2.87;;
20478;SDS011;10398;52.490;13.434;2022-10-17T08:26:21;4.23;;;2.83;;
20478;SDS011;10398;52.490;13.434;2022-10-17T08:28:47;4.23;;;2.80;;
20478;SDS011;10398;52.490;13.434;2022-10-17T08:31:17;6.40;;;2.63;;
20478;SDS011;10398;52.490;13.434;2022-10-17T08:33:44;4.43;;;2.73;;
20478;SDS011;10398;52.490;13.434;2022-10-17T08:36:11;6.47;;;2.53;;
20478;SDS011;10398;52.490;13.434;2022-10-17T08:38:38;6.28;;;2.90;;
20478;SDS011;10398;52.490;13.434;2022-10-17T08:41:12;4.47;;;3.10;;
20478;SDS011;10398;52.490;13.434;2022-10-17T08:43:50;10.97;;;2.50;;
20478;SDS011;10398;52.490;13.434;2022-10-17T08:46:30;7.38;;;2.50;;
20478;SDS011;10398;52.490;13.434;2022-10-17T08:48:59;3.53;;;2.30;;
20478;SDS011;10398;52.490;13.434;2022-10-17T08:51:29;4.38;;;2.58;;
20478;SDS011;10398;52.490;13.434;2022-10-17T08:56:42;4.60;;;2.40;;
20478;SDS011;10398;52.490;13.434;2022-10-17T08:59:13;4.63;;;2.35;;
20478;SDS011;10398;52.490;13.434;2022-10-17T09:19:34;4.50;;;2.05;;
20478;SDS011;10398;52.490;13.434;2022-10-17T09:22:14;9.98;;;2.28;;
20478;SDS011;10398;52.490;13.434;2022-10-17T09:29:49;6.57;;;2.90;;
20478;SDS011;10398;52.490;13.434;2022-10-17T09:32:23;5.28;;;2.33;;
20478;SDS011;10398;52.490;13.434;2022-10-17T09:34:50;10.35;;;3.33;;
20478;SDS011;10398;52.490;13.434;2022-10-17T09:37:17;4.47;;;2.53;;
20478;SDS011;10398;52.490;13.434;2022-10-17T09:39:43;4.85;;;2.63;;
20478;SDS011;10398;52.490;13.434;2022-10-17T09:42:14;5.72;;;2.72;;
20478;SDS011;10398;52.490;13.434;2022-10-17T09:44:54;5.22;;;2.50;;
20478;SDS011;10398;52.490;13.434;2022-10-17T09:47:49;3.25;;;2.08;;
20478;SDS011;10398;52.490;13.434;2022-10-17T09:50:41;3.65;;;1.75;;
20478;SDS011;10398;52.490;13.434;2022-10-17T09:53:11;4.07;;;1.77;;
20478;SDS011;10398;52.490;13.434;2022-10-17T09:55:43;2.90;;;2.00;;
20478;SDS011;10398;52.490;13.434;2022-10-17T09:58:12;4.22;;;2.42;;
20478;SDS011;10398;52.490;13.434;2022-10-17T10:00:39;3.80;;;2.20;;
20478;SDS011;10398;52.490;13.434;2022-10-17T10:03:25;7.47;;;2.58;;
20478;SDS011;10398;52.490;13.434;2022-10-17T10:08:36;3.35;;;2.03;;
20478;SDS011;10398;52.490;13.434;2022-10-17T10:11:15;2.53;;;1.80;;
20478;SDS011;10398;52.490;13.434;2022-10-17T10:13:42;6.38;;;1.77;;
20478;SDS011;10398;52.490;13.434;2022-10-17T10:16:15;5.43;;;1.95;;
20478;SDS011;10398;52.490;13.434;2022-10-17T10:18:41;4.72;;;2.05;;
20478;SDS011;10398;52.490;13.434;2022-10-17T10:23:32;4.20;;;2.10;;
20478;SDS011;10398;52.490;13.434;2022-10-17T10:26:02;4.75;;;2.40;;
20478;SDS011;10398;52.490;13.434;2022-10-17T10:28:30;4.75;;;2.30;;
20478;SDS011;10398;52.490;13.434;2022-10-17T10:31:03;4.63;;;1.85;;
20478;SDS011;10398;52.490;13.434;2022-10-17T10:33:32;3.28;;;2.03;;
20478;SDS011;10398;52.490;13.434;2022-10-17T10:36:02;2.92;;;1.58;;
20478;SDS011;10398;52.490;13.434;2022-10-17T10:38:30;3.10;;;1.83;;
20478;SDS011;10398;52.490;13.434;2022-10-17T10:41:01;4.18;;;1.85;;
20478;SDS011;10398;52.490;13.434;2022-10-17T10:46:25;4.88;;;1.98;;
20478;SDS011;10398;52.490;13.434;2022-10-17T10:48:55;10.00;;;2.58;;
20478;SDS011;10398;52.490;13.434;2022-10-17T10:51:34;3.50;;;1.70;;
20478;SDS011;10398;52.490;13.434;2022-10-17T10:54:11;4.63;;;1.83;;
20478;SDS011;10398;52.490;13.434;2022-10-17T10:56:42;5.03;;;2.20;;
20478;SDS011;10398;52.490;13.434;2022-10-17T11:04:39;10.27;;;2.20;;
20478;SDS011;10398;52.490;13.434;2022-10-17T11:07:12;2.83;;;1.75;;
20478;SDS011;10398;52.490;13.434;2022-10-17T11:14:55;3.05;;;1.60;;
20478;SDS011;10398;52.490;13.434;2022-10-17T11:23:29;2.72;;;1.60;;
20478;SDS011;10398;52.490;13.434;2022-10-17T11:26:07;3.13;;;1.90;;
20478;SDS011;10398;52.490;13.434;2022-10-17T11:28:40;5.72;;;2.28;;
20478;SDS011;10398;52.490;13.434;2022-10-17T11:31:07;4.78;;;1.80;;
20478;SDS011;10398;52.490;13.434;2022-10-17T11:33:56;2.28;;;1.70;;
20478;SDS011;10398;52.490;13.434;2022-10-17T11:36:27;2.42;;;1.38;;
20478;SDS011;10398;52.490;13.434;2022-10-17T11:38:56;3.10;;;1.77;;
20478;SDS011;10398;52.490;13.434;2022-10-17T11:47:16;11.68;;;2.00;;
20478;SDS011;10398;52.490;13.434;2022-10-17T11:50:19;2.85;;;1.70;;
20478;SDS011;10398;52.490;13.434;2022-10-17T11:52:49;5.30;;;1.90;;
20478;SDS011;10398;52.490;13.434;2022-10-17T11:55:20;5.57;;;2.15;;
20478;SDS011;10398;52.490;13.434;2022-10-17T12:03:31;5.07;;;2.10;;
20478;SDS011;10398;52.490;13.434;2022-10-17T12:12:10;2.60;;;2.00;;
20478;SDS011;10398;52.490;13.434;2022-10-17T12:14:49;3.25;;;2.25;;
20478;SDS011;10398;52.490;13.434;2022-10-17T12:22:49;5.38;;;2.10;;
20478;SDS011;10398;52.490;13.434;2022-10-17T12:25:47;2.50;;;1.80;;
20478;SDS011;10398;52.490;13.434;2022-10-17T12:28:26;6.05;;;1.88;;
20478;SDS011;10398;52.490;13.434;2022-10-17T12:33:25;6.13;;;2.22;;
20478;SDS011;10398;52.490;13.434;2022-10-17T12:38:47;3.65;;;1.80;;
20478;SDS011;10398;52.490;13.434;2022-10-17T12:41:13;3.28;;;2.08;;
20478;SDS011;10398;52.490;13.434;2022-10-17T12:43:43;5.35;;;2.40;;
20478;SDS011;10398;52.490;13.434;2022-10-17T12:46:10;5.13;;;2.22;;
20478;SDS011;10398;52.490;13.434;2022-10-17T12:56:29;4.38;;;1.95;;
20478;SDS011;10398;52.490;13.434;2022-10-17T12:58:58;5.30;;;2.80;;
20478;SDS011;10398;52.490;13.434;2022-10-17T13:01:26;3.53;;;2.00;;
20478;SDS011;10398;52.490;13.434;2022-10-17T13:03:55;5.25;;;2.10;;
20478;SDS011;10398;52.490;13.434;2022-10-17T13:06:22;5.28;;;2.15;;
20478;SDS011;10398;52.490;13.434;2022-10-17T13:09:01;6.25;;;2.13;;
20478;SDS011;10398;52.490;13.434;2022-10-17T13:11:33;6.43;;;1.92;;
20478;SDS011;10398;52.490;13.434;2022-10-17T13:14:01;3.80;;;2.13;;
20478;SDS011;10398;52.490;13.434;2022-10-17T13:16:34;7.57;;;2.10;;
20478;SDS011;10398;52.490;13.434;2022-10-17T13:19:03;7.60;;;2.38;;
20478;SDS011;10398;52.490;13.434;2022-10-17T13:21:49;4.07;;;2.20;;
20478;SDS011;10398;52.490;13.434;2022-10-17T13:24:19;3.92;;;2.03;;
20478;SDS011;10398;52.490;13.434;2022-10-17T13:26:45;5.05;;;1.67;;
20478;SDS011;10398;52.490;13.434;2022-10-17T13:29:12;3.40;;;2.00;;
20478;SDS011;10398;52.490;13.434;2022-10-17T13:31:43;2.42;;;1.60;;
20478;SDS011;10398;52.490;13.434;2022-10-17T13:34:16;6.10;;;1.88;;
20478;SDS011;10398;52.490;13.434;2022-10-17T13:36:45;3.13;;;1.83;;
20478;SDS011;10398;52.490;13.434;2022-10-17T13:39:13;3.83;;;1.98;;
20478;SDS011;10398;52.490;13.434;2022-10-17T13:41:41;6.20;;;2.10;;
20478;SDS011;10398;52.490;13.434;2022-10-17T13:44:14;2.80;;;1.90;;
20478;SDS011;10398;52.490;13.434;2022-10-17T13:46:45;4.18;;;1.88;;
20478;SDS011;10398;52.490;13.434;2022-10-17T13:52:03;4.30;;;2.05;;
20478;SDS011;10398;52.490;13.434;2022-10-17T13:54:32;3.88;;;1.80;;
20478;SDS011;10398;52.490;13.434;2022-10-17T13:57:05;3.88;;;1.92;;
20478;SDS011;10398;52.490;13.434;2022-10-17T13:59:44;3.85;;;2.03;;
20478;SDS011;10398;52.490;13.434;2022-10-17T14:02:15;3.38;;;2.20;;
20478;SDS011;10398;52.490;13.434;2022-10-17T14:04:43;4.15;;;2.40;;
20478;SDS011;10398;52.490;13.434;2022-10-17T14:07:18;4.63;;;1.80;;
20478;SDS011;10398;52.490;13.434;2022-10-17T14:09:49;3.90;;;1.80;;
20478;SDS011;10398;52.490;13.434;2022-10-17T14:12:14;3.53;;;1.92;;
20478;SDS011;10398;52.490;13.434;2022-10-17T14:14:45;2.20;;;1.63;;
20478;SDS011;10398;52.490;13.434;2022-10-17T14:17:14;6.15;;;2.40;;
20478;SDS011;10398;52.490;13.434;2022-10-17T14:19:50;4.93;;;2.00;;
20478;SDS011;10398;52.490;13.434;2022-10-17T14:24:44;4.28;;;2.00;;
20478;SDS011;10398;52.490;13.434;2022-10-17T14:29:57;7.45;;;2.60;;
20478;SDS011;10398;52.490;13.434;2022-10-17T14:32:28;4.60;;;2.35;;
20478;SDS011;10398;52.490;13.434;2022-10-17T14:34:56;6.75;;;2.40;;
20478;SDS011;10398;52.490;13.434;2022-10-17T14:39:53;6.57;;;2.83;;
20478;SDS011;10398;52.490;13.434;2022-10-17T14:42:21;10.80;;;3.60;;
20478;SDS011;10398;52.490;13.434;2022-10-17T14:44:48;8.55;;;3.15;;
20478;SDS011;10398;52.490;13.434;2022-10-17T14:47:19;6.55;;;3.28;;
20478;SDS011;10398;52.490;13.434;2022-10-17T14:49:50;5.13;;;3.13;;
20478;SDS011;10398;52.490;13.434;2022-10-17T14:52:27;5.43;;;2.78;;
20478;SDS011;10398;52.490;13.434;2022-10-17T14:54:54;8.18;;;3.08;;
20478;SDS011;10398;52.490;13.434;2022-10-17T14:57:22;7.13;;;3.92;;
20478;SDS011;10398;52.490;13.434;2022-10-17T14:59:56;13.07;;;3.83;;
20478;SDS011;10398;52.490;13.434;2022-10-17T15:02:23;6.43;;;2.88;;
20478;SDS011;10398;52.490;13.434;2022-10-17T15:04:52;9.35;;;2.95;;
20478;SDS011;10398;52.490;13.434;2022-10-17T15:07:19;6.10;;;3.20;;
20478;SDS011;10398;52.490;13.434;2022-10-17T15:09:46;6.05;;;2.72;;
20478;SDS011;10398;52.490;13.434;2022-10-17T15:12:15;7.65;;;3.72;;
20478;SDS011;10398;52.490;13.434;2022-10-17T15:14:42;7.47;;;3.00;;
20478;SDS011;10398;52.490;13.434;2022-10-17T15:17:10;6.60;;;3.50;;
20478;SDS011;10398;52.490;13.434;2022-10-17T15:19:38;9.20;;;4.60;;
20478;SDS011;10398;52.490;13.434;2022-10-17T15:22:03;8.77;;;3.97;;
20478;SDS011;10398;52.490;13.434;2022-10-17T15:24:29;7.78;;;4.65;;
20478;SDS011;10398;52.490;13.434;2022-10-17T15:26:55;10.35;;;4.97;;
20478;SDS011;10398;52.490;13.434;2022-10-17T15:29:20;9.85;;;4.65;;
20478;SDS011;10398;52.490;13.434;2022-10-17T15:31:46;9.80;;;4.60;;
20478;SDS011;10398;52.490;13.434;2022-10-17T15:34:11;12.40;;;5.55;;
20478;SDS011;10398;52.490;13.434;2022-10-17T15:36:41;11.68;;;5.32;;
20478;SDS011;10398;52.490;13.434;2022-10-17T15:39:12;12.65;;;4.75;;
20478;SDS011;10398;52.490;13.434;2022-10-17T15:41:37;10.10;;;4.97;;
20478;SDS011;10398;52.490;13.434;2022-10-17T15:44:03;7.53;;;3.88;;
20478;SDS011;10398;52.490;13.434;2022-10-17T15:46:29;8.60;;;3.67;;
20478;SDS011;10398;52.490;13.434;2022-10-17T15:49:03;7.80;;;3.85;;
20478;SDS011;10398;52.490;13.434;2022-10-17T15:51:31;12.25;;;5.55;;
20478;SDS011;10398;52.490;13.434;2022-10-17T15:53:57;6.72;;;3.58;;
20478;SDS011;10398;52.490;13.434;2022-10-17T15:56:26;10.40;;;3.63;;
20478;SDS011;10398;52.490;13.434;2022-10-17T15:58:55;7.65;;;3.38;;
20478;SDS011;10398;52.490;13.434;2022-10-17T16:01:23;5.68;;;2.53;;
20478;SDS011;10398;52.490;13.434;2022-10-17T16:03:54;6.80;;;2.65;;
20478;SDS011;10398;52.490;13.434;2022-10-17T16:06:20;4.80;;;2.85;;
20478;SDS011;10398;52.490;13.434;2022-10-17T16:08:46;5.55;;;3.05;;
20478;SDS011;10398;52.490;13.434;2022-10-17T16:11:17;7.15;;;2.97;;
20478;SDS011;10398;52.490;13.434;2022-10-17T16:13:52;9.13;;;3.55;;
20478;SDS011;10398;52.490;13.434;2022-10-17T16:16:20;9.48;;;4.45;;
20478;SDS011;10398;52.490;13.434;2022-10-17T16:18:48;10.90;;;5.15;;
20478;SDS011;10398;52.490;13.434;2022-10-17T16:21:14;11.30;;;5.45;;
20478;SDS011;10398;52.490;13.434;2022-10-17T16:23:41;15.48;;;6.07;;
20478;SDS011;10398;52.490;13.434;2022-10-17T16:26:07;12.93;;;5.82;;
20478;SDS011;10398;52.490;13.434;2022-10-17T16:28:33;12.60;;;5.30;;
20478;SDS011;10398;52.490;13.434;2022-10-17T16:30:59;9.98;;;4.95;;
20478;SDS011;10398;52.490;13.434;2022-10-17T16:33:25;11.55;;;4.78;;
20478;SDS011;10398;52.490;13.434;2022-10-17T16:35:51;11.20;;;4.60;;
20478;SDS011;10398;52.490;13.434;2022-10-17T16:38:17;10.27;;;4.65;;
20478;SDS011;10398;52.490;13.434;2022-10-17T16:40:42;12.85;;;5.88;;
20478;SDS011;10398;52.490;13.434;2022-10-17T16:43:09;12.35;;;5.15;;
20478;SDS011;10398;52.490;13.434;2022-10-17T16:45:37;12.45;;;5.65;;
20478;SDS011;10398;52.490;13.434;2022-10-17T16:48:02;10.77;;;4.82;;
20478;SDS011;10398;52.490;13.434;2022-10-17T16:50:30;8.75;;;4.00;;
20478;SDS011;10398;52.490;13.434;2022-10-17T16:52:59;7.40;;;3.72;;
20478;SDS011;10398;52.490;13.434;2022-10-17T16:55:25;6.85;;;3.80;;
20478;SDS011;10398;52.490;13.434;2022-10-17T16:57:51;8.02;;;3.20;;